createdAt,value
2019-04-01T00:02:03.618Z,86.00
2019-04-01T00:04:34.410Z,84.60
2019-04-01T00:07:05.327Z,85.60
2019-04-01T00:09:36.034Z,86.00
2019-04-01T00:12:08.037Z,85.00
2019-04-01T00:14:38.855Z,85.40
2019-04-01T00:17:09.567Z,86.50
2019-04-01T00:19:40.607Z,86.60
2019-04-01T00:22:11.377Z,86.30
2019-04-01T00:24:42.204Z,86.80
2019-04-01T00:27:13.045Z,86.30
2019-04-01T00:29:45.402Z,86.10
2019-04-01T00:32:16.370Z,86.30
2019-04-01T00:34:47.154Z,87.10
2019-04-01T00:37:17.902Z,86.50
2019-04-01T00:39:48.715Z,86.80
2019-04-01T00:42:38.528Z,87.10
2019-04-01T00:45:11.716Z,86.70
2019-04-01T00:47:42.653Z,86.20
2019-04-01T00:50:13.350Z,86.70
2019-04-01T00:52:44.307Z,87.20
2019-04-01T00:55:15.077Z,86.60
2019-04-01T00:57:45.778Z,86.60
2019-04-01T01:00:18.013Z,86.90
2019-04-01T01:02:50.396Z,87.00
2019-04-01T01:05:21.152Z,87.10
2019-04-01T01:07:51.939Z,87.70
2019-04-01T01:10:22.921Z,87.40
2019-04-01T01:12:53.683Z,87.90
2019-04-01T01:15:24.418Z,86.90
2019-04-01T01:17:55.183Z,86.70
2019-04-01T01:20:25.930Z,87.50
2019-04-01T01:22:56.659Z,87.10
2019-04-01T01:25:27.405Z,87.50
2019-04-01T01:27:58.175Z,87.40
2019-04-01T01:30:28.976Z,87.90
2019-04-01T01:32:59.714Z,88.10
2019-04-01T01:35:30.503Z,87.50
2019-04-01T01:38:01.169Z,87.60
2019-04-01T01:40:32.053Z,87.80
2019-04-01T01:43:02.750Z,87.60
2019-04-01T01:45:33.427Z,87.30
2019-04-01T01:48:04.247Z,87.60
2019-04-01T01:50:35.775Z,88.20
2019-04-01T02:08:51.671Z,89.00
2019-04-01T02:11:23.490Z,89.10
2019-04-01T02:13:54.205Z,88.90
2019-04-01T02:16:24.971Z,90.00
2019-04-01T02:18:55.831Z,90.10
2019-04-01T02:21:26.621Z,89.90
2019-04-01T02:23:57.416Z,90.20
2019-04-01T02:26:28.244Z,90.10
2019-04-01T02:28:59.001Z,90.10
2019-04-01T02:31:32.417Z,90.10
2019-04-01T02:34:03.166Z,90.40
2019-04-01T02:36:33.836Z,90.20
2019-04-01T02:39:07.813Z,90.30
2019-04-01T02:41:40.160Z,90.40
2019-04-01T02:44:10.914Z,90.40
2019-04-01T02:46:41.843Z,90.40
2019-04-01T02:49:12.620Z,90.40
2019-04-01T02:51:45.773Z,90.40
2019-04-01T02:54:16.804Z,90.40
2019-04-01T02:56:47.491Z,90.20
2019-04-01T02:59:18.197Z,90.40
2019-04-01T03:01:49.040Z,90.40
2019-04-01T03:04:19.806Z,90.30
2019-04-01T03:06:50.582Z,90.20
2019-04-01T03:09:21.274Z,90.10
2019-04-01T03:11:52.053Z,90.70
2019-04-01T03:14:22.852Z,90.50
2019-04-01T03:16:53.657Z,90.60
2019-04-01T03:19:24.370Z,90.70
2019-04-01T03:21:55.113Z,90.70
2019-04-01T03:24:25.868Z,90.70
2019-04-01T03:26:59.900Z,90.80
2019-04-01T03:29:29.085Z,90.60
2019-04-01T03:31:59.739Z,90.60
2019-04-01T03:34:32.215Z,90.80
2019-04-01T03:37:02.964Z,90.60
2019-04-01T03:39:33.595Z,90.80
2019-04-01T03:42:06.212Z,90.90
2019-04-01T03:44:36.975Z,91.10
2019-04-01T03:47:08.315Z,90.80
2019-04-01T03:49:39.065Z,91.00
2019-04-01T03:52:10.491Z,91.20
2019-04-01T03:54:41.774Z,91.30
2019-04-01T03:57:12.641Z,91.60
2019-04-01T03:59:43.811Z,91.30
2019-04-01T04:02:14.595Z,91.20
2019-04-01T04:04:45.397Z,91.20
2019-04-01T04:07:16.286Z,91.40
2019-04-01T04:09:47.167Z,91.30
2019-04-01T04:12:17.851Z,91.60
2019-04-01T04:14:51.190Z,91.60
2019-04-01T04:17:21.046Z,91.60
2019-04-01T04:19:52.284Z,91.70
2019-04-01T04:22:23.119Z,91.40
2019-04-01T04:24:53.844Z,91.60
2019-04-01T04:27:25.422Z,91.70
2019-04-01T04:29:56.072Z,91.90
2019-04-01T04:32:26.886Z,92.00
2019-04-01T04:34:58.829Z,92.10
2019-04-01T04:37:29.833Z,91.90
2019-04-01T04:40:00.619Z,91.90
2019-04-01T04:42:31.373Z,91.90
2019-04-01T04:45:02.285Z,92.30
2019-04-01T04:47:33.143Z,92.30
2019-04-01T04:50:04.170Z,92.30
2019-04-01T04:52:36.584Z,92.70
2019-04-01T04:55:07.385Z,92.70
2019-04-01T04:57:38.133Z,92.70
2019-04-01T05:00:09.105Z,92.80
2019-04-01T05:02:42.866Z,92.80
2019-04-01T05:05:15.127Z,92.90
2019-04-01T05:07:45.893Z,93.10
2019-04-01T05:10:16.723Z,93.00
2019-04-01T05:12:47.573Z,93.10
2019-04-01T05:15:18.350Z,93.20
2019-04-01T05:17:49.138Z,93.20
2019-04-01T05:20:19.972Z,93.30
2019-04-01T05:22:56.515Z,93.40
2019-04-01T05:25:27.935Z,93.60
2019-04-01T05:28:01.466Z,93.70
2019-04-01T05:30:34.252Z,93.80
2019-04-01T05:33:05.031Z,94.00
2019-04-01T05:35:37.003Z,94.40
2019-04-01T05:38:08.720Z,94.10
2019-04-01T05:40:39.558Z,94.20
2019-04-01T05:43:11.969Z,94.20
2019-04-01T05:45:42.835Z,94.20
2019-04-01T05:48:15.677Z,94.00
2019-04-01T05:50:48.556Z,93.90
2019-04-01T05:53:19.361Z,94.00
2019-04-01T05:55:50.215Z,93.80
2019-04-01T05:58:21.014Z,93.90
2019-04-01T06:00:58.307Z,93.70
2019-04-01T06:03:30.258Z,93.70
2019-04-01T06:06:01.231Z,93.80
2019-04-01T06:08:42.102Z,93.70
2019-04-01T06:11:13.549Z,93.90
2019-04-01T06:13:54.498Z,93.80
2019-04-01T06:16:25.337Z,93.70
2019-04-01T06:18:57.677Z,93.70
2019-04-01T06:21:33.998Z,93.60
2019-04-01T06:24:09.097Z,93.40
2019-04-01T06:26:42.195Z,93.40
2019-04-01T06:29:13.048Z,93.20
2019-04-01T06:31:43.789Z,93.10
2019-04-01T06:34:14.676Z,92.90
2019-04-01T06:36:45.462Z,93.00
2019-04-01T06:39:16.236Z,92.40
2019-04-01T06:41:46.927Z,92.60
2019-04-01T06:44:17.701Z,92.60
2019-04-01T06:46:48.438Z,92.00
2019-04-01T06:49:20.427Z,92.50
2019-04-01T06:51:51.266Z,91.40
2019-04-01T06:54:22.081Z,91.50
2019-04-01T06:56:52.799Z,91.10
2019-04-01T06:59:23.545Z,91.00
2019-04-01T07:01:54.312Z,91.10
2019-04-01T07:04:25.061Z,90.50
2019-04-01T07:06:55.667Z,90.50
2019-04-01T07:09:26.466Z,90.30
2019-04-01T07:11:57.227Z,90.40
2019-04-01T07:14:34.937Z,88.80
2019-04-01T07:17:12.482Z,88.80
2019-04-01T07:19:46.550Z,87.40
2019-04-01T07:22:26.924Z,86.80
2019-04-01T07:24:57.686Z,85.30
2019-04-01T07:27:29.485Z,84.60
2019-04-01T07:30:00.348Z,85.50
2019-04-01T07:32:31.191Z,82.50
2019-04-01T07:35:02.275Z,81.60
2019-04-01T07:37:33.206Z,80.70
2019-04-01T07:40:04.455Z,78.10
2019-04-01T07:42:35.243Z,78.10
2019-04-01T07:45:07.210Z,77.20
2019-04-01T07:47:38.027Z,79.50
2019-04-01T07:50:11.995Z,76.30
2019-04-01T07:52:41.771Z,74.70
2019-04-01T07:55:12.571Z,74.70
2019-04-01T07:57:43.349Z,74.60
2019-04-01T08:00:14.568Z,75.00
2019-04-01T08:02:48.753Z,75.50
2019-04-01T08:05:20.782Z,73.90
2019-04-01T08:07:52.567Z,70.70
2019-04-01T08:10:23.276Z,72.10
2019-04-01T08:12:53.939Z,70.40
2019-04-01T08:15:25.133Z,68.20
2019-04-01T08:17:55.766Z,69.10
2019-04-01T08:20:26.497Z,67.90
2019-04-01T08:22:57.248Z,67.80
2019-04-01T08:25:31.175Z,68.20
2019-04-01T08:28:01.827Z,70.20
2019-04-01T08:30:32.626Z,65.90
2019-04-01T08:33:04.255Z,68.40
2019-04-01T08:35:34.988Z,65.80
2019-04-01T08:38:05.827Z,65.90
2019-04-01T08:40:36.676Z,64.80
2019-04-01T08:43:08.527Z,65.50
2019-04-01T08:45:39.289Z,64.90
2019-04-01T08:48:11.497Z,64.20
2019-04-01T08:50:43.736Z,65.10
2019-04-01T08:53:14.640Z,64.30
2019-04-01T08:55:45.592Z,62.10
2019-04-01T08:58:16.370Z,62.10
2019-04-01T09:00:48.978Z,62.40
2019-04-01T09:03:19.757Z,62.30
2019-04-01T09:05:50.620Z,61.00
2019-04-01T09:08:22.979Z,61.70
2019-04-01T09:10:55.051Z,60.90
2019-04-01T09:13:26.017Z,58.60
2019-04-01T09:15:57.276Z,59.70
2019-04-01T09:18:29.644Z,60.00
2019-04-01T09:21:00.500Z,59.10
2019-04-01T09:23:31.424Z,59.70
2019-04-01T09:26:02.208Z,59.70
2019-04-01T09:28:32.978Z,59.00
2019-04-01T09:31:03.836Z,57.70
2019-04-01T09:33:34.598Z,55.90
2019-04-01T09:36:05.332Z,58.20
2019-04-01T09:38:37.553Z,57.70
2019-04-01T09:41:08.388Z,56.00
2019-04-01T09:43:40.146Z,56.90
2019-04-01T09:46:10.843Z,55.90
2019-04-01T09:48:41.538Z,57.40
2019-04-01T09:51:12.350Z,57.50
2019-04-01T09:53:43.097Z,56.90
2019-04-01T09:56:13.850Z,53.90
2019-04-01T09:58:44.566Z,53.60
2019-04-01T10:01:16.931Z,54.50
2019-04-01T10:03:47.697Z,53.00
2019-04-01T10:06:18.453Z,53.70
2019-04-01T10:08:49.269Z,51.60
2019-04-01T10:11:20.062Z,52.10
2019-04-01T10:13:50.823Z,52.20
2019-04-01T10:16:22.414Z,52.60
2019-04-01T10:18:54.187Z,51.00
2019-04-01T10:21:24.927Z,50.70
2019-04-01T10:23:55.700Z,49.20
2019-04-01T10:26:26.506Z,50.70
2019-04-01T10:28:57.462Z,49.40
2019-04-01T10:31:28.200Z,50.90
2019-04-01T10:33:59.004Z,49.50
2019-04-01T10:36:29.887Z,49.00
2019-04-01T10:39:00.640Z,48.20
2019-04-01T10:41:32.986Z,48.80
2019-04-01T10:44:05.007Z,49.80
2019-04-01T10:46:35.845Z,48.90
2019-04-01T10:49:06.521Z,49.70
2019-04-01T10:51:37.222Z,48.40
2019-04-01T10:54:09.140Z,49.80
2019-04-01T10:56:39.937Z,48.30
2019-04-01T10:59:10.716Z,48.90
2019-04-01T11:01:43.298Z,46.80
2019-04-01T11:04:15.218Z,49.10
2019-04-01T11:06:46.112Z,47.20
2019-04-01T11:09:18.689Z,46.70
2019-04-01T11:11:49.538Z,47.50
2019-04-01T11:14:20.278Z,46.20
2019-04-01T11:16:51.107Z,46.50
2019-04-01T11:19:21.928Z,45.20
2019-04-01T11:21:52.762Z,44.00
2019-04-01T11:24:25.940Z,44.80
2019-04-01T11:26:57.931Z,43.60
2019-04-01T11:29:28.769Z,42.90
2019-04-01T11:31:59.493Z,42.50
2019-04-01T11:34:30.225Z,41.00
2019-04-01T11:37:01.058Z,41.80
2019-04-01T11:39:32.956Z,41.40
2019-04-01T11:42:03.742Z,39.80
2019-04-01T11:44:34.792Z,40.90
2019-04-01T11:47:05.633Z,41.00
2019-04-01T11:49:36.390Z,41.10
2019-04-01T11:52:09.584Z,40.70
2019-04-01T11:54:42.115Z,39.20
2019-04-01T11:57:12.894Z,39.80
2019-04-01T11:59:48.839Z,38.30
2019-04-01T12:02:19.694Z,39.10
2019-04-01T12:04:58.139Z,36.90
2019-04-01T12:07:35.395Z,33.80
2019-04-01T12:10:07.605Z,33.30
2019-04-01T12:12:38.649Z,31.00
2019-04-01T12:15:12.066Z,30.00
2019-04-01T12:17:42.311Z,29.40
2019-04-01T12:20:13.175Z,29.40
2019-04-01T12:22:45.931Z,29.90
2019-04-01T12:25:22.815Z,29.40
2019-04-01T12:27:55.688Z,29.10
2019-04-01T12:30:26.537Z,28.60
2019-04-01T12:33:09.703Z,27.90
2019-04-01T12:35:45.079Z,28.80
2019-04-01T12:38:21.342Z,27.70
2019-04-01T12:40:57.013Z,27.10
2019-04-01T12:43:31.490Z,26.50
2019-04-01T12:46:27.874Z,26.20
2019-04-01T12:49:02.746Z,27.20
2019-04-01T12:51:35.003Z,26.30
2019-04-01T12:54:05.806Z,25.80
2019-04-01T12:56:46.931Z,24.70
2019-04-01T12:59:17.864Z,24.50
2019-04-01T13:01:49.935Z,25.10
2019-04-01T13:04:20.737Z,23.80
2019-04-01T13:06:52.811Z,22.80
2019-04-01T13:09:25.365Z,23.80
2019-04-01T13:11:57.898Z,25.20
2019-04-01T13:14:28.768Z,22.80
2019-04-01T13:17:00.955Z,22.20
2019-04-01T13:19:32.687Z,22.40
2019-04-01T13:22:06.991Z,22.00
2019-04-01T13:24:41.127Z,22.20
2019-04-01T13:27:11.894Z,22.50
2019-04-01T13:29:43.452Z,22.50
2019-04-01T13:32:18.150Z,21.60
2019-04-01T13:34:49.039Z,21.50
2019-04-01T13:37:27.574Z,21.20
2019-04-01T13:40:02.216Z,20.50
2019-04-01T13:42:32.688Z,20.70
2019-04-01T13:45:06.453Z,20.90
2019-04-01T13:47:37.220Z,19.60
2019-04-01T13:50:10.480Z,21.00
2019-04-01T13:52:42.794Z,20.50
2019-04-01T13:55:16.689Z,21.60
2019-04-01T13:57:47.500Z,22.10
2019-04-01T14:00:20.402Z,22.30
2019-04-01T14:02:51.407Z,21.90
2019-04-01T14:05:24.965Z,22.00
2019-04-01T14:07:56.042Z,21.40
2019-04-01T14:10:31.115Z,21.20
2019-04-01T14:13:06.409Z,20.70
2019-04-01T14:15:39.243Z,20.00
2019-04-01T14:18:12.518Z,20.10
2019-04-01T14:20:45.436Z,20.60
2019-04-01T14:23:23.419Z,20.90
2019-04-01T14:25:58.709Z,21.10
2019-04-01T14:28:29.420Z,21.80
2019-04-01T14:31:01.754Z,21.90
2019-04-01T14:33:32.887Z,21.60
2019-04-01T14:36:04.682Z,21.20
2019-04-01T14:38:35.802Z,20.90
2019-04-01T14:41:10.501Z,21.40
2019-04-01T14:43:47.562Z,21.20
2019-04-01T14:46:24.520Z,19.80
2019-04-01T14:49:02.758Z,19.90
2019-04-01T14:51:34.042Z,21.10
2019-04-01T14:54:11.335Z,20.30
2019-04-01T14:56:42.194Z,20.10
2019-04-01T14:59:13.060Z,19.90
2019-04-01T15:01:45.548Z,20.20
2019-04-01T15:04:16.358Z,20.30
2019-04-01T15:06:47.172Z,20.00
2019-04-01T15:09:19.373Z,20.70
2019-04-01T15:11:50.208Z,20.50
2019-04-01T15:14:21.019Z,20.30
2019-04-01T15:16:53.726Z,22.10
2019-04-01T15:19:55.950Z,22.40
2019-04-01T15:22:22.859Z,22.90
2019-04-01T15:24:54.494Z,22.80
2019-04-01T15:31:17.182Z,23.40
2019-04-01T15:33:48.022Z,22.50
2019-04-01T15:34:19.901Z,22.90
2019-04-01T15:36:18.919Z,23.90
2019-04-01T15:38:55.622Z,23.70
2019-04-01T15:41:27.903Z,24.10
2019-04-01T15:44:01.582Z,23.20
2019-04-01T15:46:32.714Z,23.90
2019-04-01T15:49:03.666Z,24.00
2019-04-01T15:51:34.457Z,23.90
2019-04-01T15:54:05.349Z,22.70
2019-04-01T15:56:36.883Z,22.70
2019-04-01T15:59:07.934Z,23.60
2019-04-01T16:01:38.766Z,24.10
2019-04-01T16:04:10.827Z,25.10
2019-04-01T16:06:41.606Z,25.70
2019-04-01T16:09:12.445Z,28.00
2019-04-01T16:11:43.344Z,28.40
2019-04-01T16:14:14.236Z,27.20
2019-04-01T16:16:45.787Z,26.00
2019-04-01T16:19:16.695Z,25.60
2019-04-01T16:21:49.215Z,26.30
2019-04-01T16:24:20.623Z,28.00
2019-04-01T16:26:52.362Z,29.10
2019-04-01T16:29:23.226Z,28.30
2019-04-01T16:31:55.546Z,28.10
2019-04-01T16:34:26.451Z,28.50
2019-04-01T16:36:58.951Z,29.00
2019-04-01T16:39:29.662Z,28.60
2019-04-01T16:42:00.398Z,29.40
2019-04-01T16:44:31.086Z,29.50
2019-04-01T16:47:01.934Z,29.70
2019-04-01T16:49:33.893Z,30.20
2019-04-01T16:52:05.039Z,31.30
2019-04-01T16:54:37.556Z,33.20
2019-04-01T16:57:08.489Z,33.70
2019-04-01T16:59:41.443Z,35.70
2019-04-01T17:02:33.083Z,37.40
2019-04-01T17:05:56.150Z,38.80
2019-04-01T17:08:17.991Z,40.30
2019-04-01T17:10:48.831Z,40.40
2019-04-01T17:13:19.802Z,41.40
2019-04-01T17:15:50.802Z,41.40
2019-04-01T17:18:28.996Z,42.10
2019-04-01T17:21:00.948Z,43.50
2019-04-01T17:23:31.879Z,44.20
2019-04-01T17:26:02.751Z,44.30
2019-04-01T17:28:33.665Z,44.20
2019-04-01T17:31:05.588Z,44.00
2019-04-01T17:33:39.377Z,44.00
2019-04-01T17:36:15.827Z,44.90
2019-04-01T17:38:48.089Z,45.10
2019-04-01T17:41:18.421Z,44.70
2019-04-01T17:43:49.417Z,44.90
2019-04-01T17:46:20.251Z,45.80
2019-04-01T17:48:53.149Z,45.50
2019-04-01T17:51:26.998Z,46.50
2019-04-01T17:54:01.203Z,47.10
2019-04-01T17:56:32.136Z,48.00
2019-04-01T17:59:04.496Z,48.20
2019-04-01T18:01:35.558Z,48.70
2019-04-01T18:04:06.627Z,48.80
2019-04-01T18:06:39.440Z,49.50
2019-04-01T18:09:10.799Z,49.70
2019-04-01T18:11:41.635Z,50.60
2019-04-01T18:14:12.596Z,51.40
2019-04-01T18:16:43.936Z,52.70
2019-04-01T18:19:15.488Z,52.70
2019-04-01T18:21:46.434Z,53.80
2019-04-01T18:24:19.495Z,54.10
2019-04-01T18:26:50.291Z,54.60
2019-04-01T18:29:21.237Z,54.60
2019-04-01T18:31:52.021Z,55.10
2019-04-01T18:34:24.407Z,55.80
2019-04-01T18:36:55.140Z,56.80
2019-04-01T18:39:29.782Z,57.40
2019-04-01T18:41:59.626Z,57.70
2019-04-01T18:44:32.984Z,58.80
2019-04-01T18:47:04.099Z,59.90
2019-04-01T18:49:35.855Z,59.60
2019-04-01T18:52:06.718Z,59.80
2019-04-01T18:57:18.851Z,62.60
2019-04-01T18:59:52.434Z,64.00
2019-04-01T19:02:26.135Z,64.20
2019-04-01T19:05:04.865Z,64.40
2019-04-01T19:07:35.869Z,65.70
2019-04-01T19:10:08.564Z,65.60
2019-04-01T19:12:44.449Z,66.30
2019-04-01T19:15:16.758Z,68.00
2019-04-01T19:17:47.975Z,68.40
2019-04-01T19:20:30.553Z,68.60
2019-04-01T19:23:01.981Z,68.70
2019-04-01T19:25:34.842Z,68.90
2019-04-01T19:28:05.790Z,70.40
2019-04-01T19:30:36.652Z,71.40
2019-04-01T19:33:22.975Z,72.70
2019-04-01T19:36:03.688Z,71.50
2019-04-01T19:38:37.742Z,71.70
2019-04-01T19:42:24.604Z,71.90
2019-04-01T19:44:05.239Z,72.20
2019-04-01T19:46:44.886Z,73.00
2019-04-01T19:49:20.679Z,72.90
2019-04-01T19:51:52.243Z,72.80
2019-04-01T19:54:36.288Z,73.90
2019-04-01T19:57:08.979Z,74.20
2019-04-01T19:59:41.495Z,74.20
2019-04-01T20:02:12.266Z,74.50
2019-04-01T20:04:44.216Z,74.60
2019-04-01T20:07:16.139Z,75.00
2019-04-01T20:09:47.607Z,75.30
2019-04-01T20:12:19.987Z,76.80
2019-04-01T20:14:51.063Z,77.50
2019-04-01T20:17:21.882Z,77.00
2019-04-01T20:19:52.828Z,76.30
2019-04-01T20:22:23.696Z,77.80
2019-04-01T20:24:54.730Z,77.50
2019-04-01T20:27:26.179Z,77.30
2019-04-01T20:29:57.620Z,78.00
2019-04-01T20:32:28.746Z,77.40
2019-04-01T20:35:00.019Z,77.80
2019-04-01T20:37:31.460Z,77.80
2019-04-01T20:40:02.611Z,78.00
2019-04-01T20:42:33.769Z,79.10
2019-04-01T20:45:05.747Z,81.00
2019-04-01T20:47:36.799Z,81.30
2019-04-01T20:50:08.539Z,81.00
2019-04-01T20:52:39.717Z,81.40
2019-04-01T20:55:10.768Z,81.10
2019-04-01T20:57:41.857Z,81.60
2019-04-01T21:00:12.877Z,81.50
2019-04-01T21:02:44.282Z,82.90
2019-04-01T21:05:15.194Z,83.30
2019-04-01T21:07:47.206Z,82.80
2019-04-01T21:10:18.571Z,83.90
2019-04-01T21:12:49.705Z,83.90
2019-04-01T21:15:20.554Z,84.30
2019-04-01T21:17:52.900Z,84.30
2019-04-01T21:20:23.733Z,84.30
2019-04-01T21:22:55.202Z,84.30
2019-04-01T21:25:27.161Z,84.60
2019-04-01T21:27:58.409Z,84.20
2019-04-01T21:30:29.421Z,84.50
2019-04-01T21:33:00.211Z,84.20
2019-04-01T21:35:31.626Z,84.50
2019-04-01T21:38:03.182Z,85.10
2019-04-01T21:40:35.086Z,85.60
2019-04-01T21:43:05.958Z,86.20
2019-04-01T21:45:36.722Z,85.70
2019-04-01T21:48:07.503Z,86.30
2019-04-01T21:50:38.322Z,87.00
2019-04-01T21:53:10.609Z,87.00
2019-04-01T21:55:42.498Z,86.90
2019-04-01T21:58:13.275Z,87.00
2019-04-01T22:00:50.683Z,87.50
2019-04-01T22:03:21.499Z,87.80
2019-04-01T22:05:52.279Z,87.80
2019-04-01T22:08:23.162Z,88.40
2019-04-01T22:10:53.822Z,88.00
2019-04-01T22:13:24.602Z,88.00
2019-04-01T22:15:55.968Z,88.20
2019-04-01T22:18:26.865Z,88.00
2019-04-01T22:20:57.626Z,88.30
2019-04-01T22:23:28.371Z,88.90
2019-04-01T22:25:59.445Z,89.40
2019-04-01T22:28:31.436Z,89.50
2019-04-01T22:31:02.263Z,90.00
2019-04-01T22:33:34.570Z,89.80
2019-04-01T22:36:06.897Z,90.00
2019-04-01T22:38:38.354Z,90.00
2019-04-01T22:41:09.115Z,90.30
2019-04-01T22:43:39.886Z,90.40
2019-04-01T22:46:11.558Z,90.70
2019-04-01T22:48:43.179Z,90.90
2019-04-01T22:51:14.270Z,91.00
2019-04-01T22:53:46.165Z,91.20
2019-04-01T22:56:16.805Z,91.20
2019-04-01T22:58:48.287Z,91.30
2019-04-01T23:01:19.057Z,91.70
2019-04-01T23:03:49.782Z,91.60
2019-04-01T23:06:20.534Z,92.10
2019-04-01T23:08:51.278Z,92.00
2019-04-01T23:11:22.018Z,92.30
2019-04-01T23:13:52.749Z,92.10
2019-04-01T23:16:23.549Z,92.60
2019-04-01T23:18:54.394Z,92.70
2019-04-01T23:21:25.070Z,92.80
2019-04-01T23:23:55.945Z,92.90
2019-04-01T23:26:26.759Z,93.00
2019-04-01T23:28:57.813Z,93.20
2019-04-01T23:31:28.600Z,93.10
2019-04-01T23:33:59.501Z,93.20
2019-04-01T23:36:30.353Z,93.30
2019-04-01T23:39:01.233Z,93.40
2019-04-01T23:41:33.442Z,93.40
2019-04-01T23:44:04.240Z,93.20
2019-04-01T23:46:35.006Z,93.60
2019-04-01T23:49:06.097Z,93.80
2019-04-01T23:51:36.885Z,94.00
2019-04-01T23:54:08.005Z,94.10
2019-04-01T23:56:38.787Z,94.00
2019-04-01T23:59:09.623Z,94.00
